Time;durP1;ratioP1;P1;durP2;ratioP2;P2;SDS_P1;SDS_P2;PMS_P1;PMS_P2;Temp;Humidity;BMP_temperature;BMP_pressure;BME280_temperature;BME280_humidity;BME280_pressure;Samples;Min_cycle;Max_cycle;Signal;HPM_P1;HPM_P2
2021/04/07 00:02:24;;;;;;;;;;;;;;;-1.79;89.95;100866.94;4939283;29;849;-77
2021/04/07 00:05:13;;;;;;;;;;;;;;;-1.83;90.39;100861.25;4938489;29;1154;-77
2021/04/07 00:07:39;;;;;;;;;;;;;;;-1.74;90.38;100864.28;4938533;29;905;-77
2021/04/07 00:10:07;;;;;;;;;;;;;;;-1.66;90.17;100866.50;4939456;29;843;-77
2021/04/07 00:12:33;;;;;;;;;;;;;;;-1.67;90.02;100864.06;4938921;29;1334;-77
2021/04/07 00:14:58;;;;;;;;;;;;;;;-1.73;89.95;100864.03;4938682;29;1898;-77
2021/04/07 00:17:24;;;;;;;;;;;;;;;-1.78;89.83;100857.75;4938166;29;834;-77
2021/04/07 00:19:49;;;;;;;;;;;;;;;-1.80;89.70;100874.28;4938767;29;905;-77
2021/04/07 00:22:15;;;;;;;;;;;;;;;-1.76;89.85;100866.44;4938544;29;794;-79
2021/04/07 00:24:40;;;;;;;;;;;;;;;-1.73;89.49;100857.78;4938304;29;1198;-77
2021/04/07 00:27:10;;;;;;;;;;;;;;;-1.75;89.21;100870.75;4938408;29;1082;-77
2021/04/07 00:29:35;;;;;;;;;;;;;;;-1.78;89.20;100863.16;4938903;29;811;-77
2021/04/07 00:32:01;;;;;;;;;;;;;;;-1.76;89.38;100869.94;4938757;29;851;-77
2021/04/07 00:34:26;;;;;;;;;;;;;;;-1.76;89.66;100859.13;4938141;29;1906;-77
2021/04/07 00:36:52;;;;;;;;;;;;;;;-1.80;89.59;100865.31;4938598;29;787;-78
2021/04/07 00:39:17;;;;;;;;;;;;;;;-1.84;89.97;100866.91;4937821;29;798;-77
2021/04/07 00:41:43;;;;;;;;;;;;;;;-1.80;89.79;100862.59;4938732;29;936;-78
2021/04/07 00:44:08;;;;;;;;;;;;;;;-1.91;89.45;100859.81;4938399;29;1233;-77
2021/04/07 00:46:35;;;;;;;;;;;;;;;-1.94;89.62;100854.94;4938922;29;886;-77
2021/04/07 00:49:10;;;;;;;;;;;;;;;-1.94;89.93;100859.53;4938014;29;850;-78
2021/04/07 00:51:36;;;;;;;;;;;;;;;-1.96;89.91;100858.97;4938394;29;790;-77
2021/04/07 00:54:02;;;;;;;;;;;;;;;-1.98;89.56;100855.72;4937912;29;1975;-77
2021/04/07 00:56:27;;;;;;;;;;;;;;;-1.98;89.89;100853.00;4938472;29;1426;-77
2021/04/07 00:58:53;;;;;;;;;;;;;;;-2.05;89.70;100853.22;4938473;29;794;-77
2021/04/07 01:01:18;;;;;;;;;;;;;;;-2.12;89.75;100852.63;4938321;29;1052;-77
2021/04/07 01:03:44;;;;;;;;;;;;;;;-2.15;90.04;100864.78;4938183;29;1221;-77
2021/04/07 01:06:09;;;;;;;;;;;;;;;-2.12;90.07;100866.16;4938438;29;859;-77
2021/04/07 01:08:35;;;;;;;;;;;;;;;-2.21;90.35;100868.53;4937756;29;873;-77
2021/04/07 01:11:01;;;;;;;;;;;;;;;-2.20;90.34;100867.44;4938291;29;949;-77
2021/04/07 01:13:27;;;;;;;;;;;;;;;-2.20;90.83;100870.16;4937944;29;1902;-77
2021/04/07 01:15:52;;;;;;;;;;;;;;;-2.24;90.77;100866.34;4938741;29;921;-77
2021/04/07 01:18:18;;;;;;;;;;;;;;;-2.27;90.46;100867.69;4941494;29;853;-77
2021/04/07 01:20:43;;;;;;;;;;;;;;;-2.33;90.59;100870.59;4942044;29;901;-77
2021/04/07 01:23:09;;;;;;;;;;;;;;;-2.30;90.59;100872.78;4941915;29;832;-77
2021/04/07 01:25:35;;;;;;;;;;;;;;;-2.39;90.61;100877.81;4941550;29;1253;-77
2021/04/07 01:28:01;;;;;;;;;;;;;;;-2.37;90.85;100872.16;4941259;29;1182;-77
2021/04/07 01:30:26;;;;;;;;;;;;;;;-2.40;90.67;100878.09;4942383;29;877;-77
2021/04/07 01:32:52;;;;;;;;;;;;;;;-2.41;90.87;100871.06;4941920;29;917;-78
2021/04/07 01:35:18;;;;;;;;;;;;;;;-2.49;90.82;100867.75;4941639;29;1894;-77
2021/04/07 01:37:44;;;;;;;;;;;;;;;-2.48;90.97;100865.84;4941034;29;825;-78
2021/04/07 01:40:13;;;;;;;;;;;;;;;-2.46;90.86;100871.81;4942800;29;908;-77
2021/04/07 01:42:41;;;;;;;;;;;;;;;-2.48;90.77;100865.84;4941508;29;881;-77
2021/04/07 01:45:08;;;;;;;;;;;;;;;-2.54;91.03;100867.69;4941393;29;1187;-77
2021/04/07 01:47:34;;;;;;;;;;;;;;;-2.53;90.91;100858.50;4940995;29;2117;-77
2021/04/07 01:50:01;;;;;;;;;;;;;;;-2.42;90.91;100861.28;4941391;29;948;-77
2021/04/07 01:52:28;;;;;;;;;;;;;;;-2.45;90.68;100868.03;4941033;29;881;-77
2021/04/07 01:54:54;;;;;;;;;;;;;;;-2.46;90.87;100859.13;4941103;29;1883;-77
2021/04/07 01:57:20;;;;;;;;;;;;;;;-2.50;90.91;100865.28;4940894;29;924;-77
2021/04/07 01:59:46;;;;;;;;;;;;;;;-2.58;91.02;100858.44;4941382;29;885;-77
2021/04/07 02:02:20;;;;;;;;;;;;;;;-2.57;91.39;100864.69;4940885;29;793;-77
2021/04/07 02:04:46;;;;;;;;;;;;;;;-2.55;91.40;100863.34;4940966;29;1194;-77
2021/04/07 02:07:13;;;;;;;;;;;;;;;-2.59;91.26;100864.13;4940542;29;837;-77
2021/04/07 02:09:40;;;;;;;;;;;;;;;-2.50;91.44;100866.09;4941131;29;842;-77
2021/04/07 02:12:06;;;;;;;;;;;;;;;-2.53;91.16;100866.59;4941325;29;820;-77
2021/04/07 02:14:31;;;;;;;;;;;;;;;-2.57;91.34;100862.78;4940677;29;1907;-78
2021/04/07 02:16:59;;;;;;;;;;;;;;;-2.49;91.52;100862.34;4940872;29;913;-77
2021/04/07 02:19:26;;;;;;;;;;;;;;;-2.55;91.35;100866.03;4940152;29;795;-77
2021/04/07 02:22:15;;;;;;;;;;;;;;;-2.54;91.22;100867.69;4940600;29;964;-77
2021/04/07 02:24:44;;;;;;;;;;;;;;;-2.62;91.61;100872.75;4935830;29;1286;-77
2021/04/07 02:27:11;;;;;;;;;;;;;;;-2.68;91.74;100871.88;4940002;29;897;-77
2021/04/07 02:29:38;;;;;;;;;;;;;;;-2.63;91.49;100863.81;4939849;29;969;-77
2021/04/07 02:32:03;;;;;;;;;;;;;;;-2.80;91.60;100869.31;4940539;29;854;-77
2021/04/07 02:34:30;;;;;;;;;;;;;;;-2.79;91.83;100862.81;4940363;29;1915;-77
2021/04/07 02:36:56;;;;;;;;;;;;;;;-2.85;92.18;100863.84;4940590;29;810;-77
2021/04/07 02:39:22;;;;;;;;;;;;;;;-2.74;92.18;100862.06;4939925;29;1025;-77
2021/04/07 02:41:47;;;;;;;;;;;;;;;-2.73;92.22;100856.41;4940404;29;857;-77
2021/04/07 02:44:12;;;;;;;;;;;;;;;-2.81;91.91;100861.47;4940026;29;1170;-77
2021/04/07 02:46:38;;;;;;;;;;;;;;;-2.85;92.05;100864.66;4940264;29;838;-77
2021/04/07 02:49:04;;;;;;;;;;;;;;;-2.87;91.95;100857.88;4939695;29;794;-77
2021/04/07 02:51:29;;;;;;;;;;;;;;;-2.84;91.99;100863.59;4940816;29;988;-77
2021/04/07 02:53:55;;;;;;;;;;;;;;;-2.83;91.87;100861.72;4940088;29;1911;-77
2021/04/07 02:56:20;;;;;;;;;;;;;;;-2.84;91.87;100860.06;4940267;29;973;-77
2021/04/07 02:58:46;;;;;;;;;;;;;;;-2.85;91.75;100861.97;4939764;29;893;-77
2021/04/07 03:01:11;;;;;;;;;;;;;;;-2.90;91.77;100853.00;4939759;29;865;-77
2021/04/07 03:03:37;;;;;;;;;;;;;;;-2.80;91.61;100853.09;4939948;29;1170;-77
2021/04/07 03:06:02;;;;;;;;;;;;;;;-2.75;91.36;100852.31;4940066;29;866;-77
2021/04/07 03:08:28;;;;;;;;;;;;;;;-2.73;91.32;100855.59;4939935;29;1015;-77
2021/04/07 03:10:54;;;;;;;;;;;;;;;-2.78;91.16;100850.16;4940028;29;762;-77
2021/04/07 03:13:19;;;;;;;;;;;;;;;-2.75;91.36;100855.84;4940086;29;1891;-77
2021/04/07 03:15:45;;;;;;;;;;;;;;;-2.75;91.19;100855.03;4940004;29;1253;-77
2021/04/07 03:18:10;;;;;;;;;;;;;;;-2.86;91.25;100863.00;4939001;29;967;-77
2021/04/07 03:20:35;;;;;;;;;;;;;;;-2.87;91.29;100852.50;4939931;29;1000;-77
2021/04/07 03:23:01;;;;;;;;;;;;;;;-2.91;91.39;100857.56;4939768;29;790;-77
2021/04/07 03:25:26;;;;;;;;;;;;;;;-2.92;91.87;100855.94;4939204;29;1265;-77
2021/04/07 03:27:52;;;;;;;;;;;;;;;-2.91;91.67;100854.03;4939124;29;909;-77
2021/04/07 03:30:17;;;;;;;;;;;;;;;-2.87;91.78;100858.69;4941226;29;845;-77
2021/04/07 03:32:43;;;;;;;;;;;;;;;-2.93;91.57;100851.59;4939942;29;829;-76
2021/04/07 03:35:09;;;;;;;;;;;;;;;-2.87;91.97;100860.59;4939622;29;1958;-77
2021/04/07 03:37:35;;;;;;;;;;;;;;;-2.76;91.95;100856.09;4939036;29;948;-77
2021/04/07 03:40:00;;;;;;;;;;;;;;;-2.63;90.95;100861.13;4939334;29;901;-77
2021/04/07 03:42:33;;;;;;;;;;;;;;;-2.57;91.25;100853.88;4939377;29;963;-77
2021/04/07 03:44:58;;;;;;;;;;;;;;;-2.48;91.05;100850.44;4938889;29;1214;-77
2021/04/07 03:47:24;;;;;;;;;;;;;;;-2.55;90.93;100851.72;4938654;29;905;-78
2021/04/07 03:49:49;;;;;;;;;;;;;;;-2.58;90.89;100863.03;4939143;29;818;-76
2021/04/07 03:52:15;;;;;;;;;;;;;;;-2.65;90.80;100853.25;4939173;29;766;-77
2021/04/07 03:54:42;;;;;;;;;;;;;;;-2.61;90.71;100858.97;4939181;29;1951;-77
2021/04/07 03:57:08;;;;;;;;;;;;;;;-2.69;90.92;100854.00;4938360;29;877;-77
2021/04/07 03:59:33;;;;;;;;;;;;;;;-2.71;91.33;100858.88;4938988;29;893;-77
2021/04/07 04:01:59;;;;;;;;;;;;;;;-2.76;91.32;100869.63;4939410;29;897;-77
2021/04/07 04:04:24;;;;;;;;;;;;;;;-2.60;91.39;100859.78;4938878;29;1275;-77
2021/04/07 04:06:50;;;;;;;;;;;;;;;-2.61;91.02;100864.38;4938809;29;774;-77
2021/04/07 04:09:16;;;;;;;;;;;;;;;-2.66;91.11;100862.44;4938341;29;1021;-77
2021/04/07 04:11:41;;;;;;;;;;;;;;;-2.70;91.12;100871.28;4939097;29;806;-77
2021/04/07 04:14:07;;;;;;;;;;;;;;;-2.79;91.48;100862.81;4938962;29;1895;-77
2021/04/07 04:16:32;;;;;;;;;;;;;;;-2.78;91.85;100871.78;4940397;29;909;-80
2021/04/07 04:18:58;;;;;;;;;;;;;;;-2.75;91.78;100871.25;4938461;29;886;-77
2021/04/07 04:21:24;;;;;;;;;;;;;;;-2.71;91.75;100875.88;4938271;29;1422;-77
2021/04/07 04:23:49;;;;;;;;;;;;;;;-2.62;92.06;100873.56;4938277;29;1300;-80
2021/04/07 04:26:15;;;;;;;;;;;;;;;-2.57;91.99;100864.69;4938369;29;1014;-77
2021/04/07 04:28:40;;;;;;;;;;;;;;;-2.52;92.11;100876.34;4938112;29;790;-77
2021/04/07 04:31:05;;;;;;;;;;;;;;;-2.44;92.11;100872.34;4939105;29;778;-77
2021/04/07 04:33:31;;;;;;;;;;;;;;;-2.28;91.44;100876.84;4938255;29;1965;-77
2021/04/07 04:35:57;;;;;;;;;;;;;;;-2.19;90.95;100873.69;4938394;29;977;-77
2021/04/07 04:38:24;;;;;;;;;;;;;;;-2.17;90.78;100872.34;4938030;29;794;-76
2021/04/07 04:40:50;;;;;;;;;;;;;;;-2.08;90.33;100868.09;4938264;29;1225;-77
2021/04/07 04:43:15;;;;;;;;;;;;;;;-2.04;90.58;100864.88;4938077;29;988;-77
2021/04/07 04:45:40;;;;;;;;;;;;;;;-2.00;89.94;100872.22;4937968;29;1155;-77
2021/04/07 04:48:06;;;;;;;;;;;;;;;-2.00;90.42;100869.50;4937951;29;834;-77
2021/04/07 04:50:32;;;;;;;;;;;;;;;-1.88;89.69;100871.22;4937566;29;985;-77
2021/04/07 04:52:57;;;;;;;;;;;;;;;-1.93;89.84;100864.69;4938398;29;901;-77
2021/04/07 04:55:23;;;;;;;;;;;;;;;-1.86;90.23;100867.19;4937947;29;1879;-77
2021/04/07 04:57:48;;;;;;;;;;;;;;;-1.87;89.98;100870.94;4937545;29;804;-77
2021/04/07 05:00:14;;;;;;;;;;;;;;;-1.82;89.86;100867.47;4937830;29;821;-79
2021/04/07 05:02:40;;;;;;;;;;;;;;;-1.72;89.77;100872.94;4937725;29;806;-77
2021/04/07 05:05:06;;;;;;;;;;;;;;;-1.67;89.72;100872.19;4937878;29;1222;-77
2021/04/07 05:07:34;;;;;;;;;;;;;;;-1.64;89.67;100877.09;4937345;29;839;-77
2021/04/07 05:10:00;;;;;;;;;;;;;;;-1.51;89.69;100879.31;4937864;29;855;-77
2021/04/07 05:12:25;;;;;;;;;;;;;;;-1.49;89.52;100869.03;4938373;29;969;-77
2021/04/07 05:14:51;;;;;;;;;;;;;;;-1.39;88.98;100871.78;4937642;29;1962;-77
2021/04/07 05:17:17;;;;;;;;;;;;;;;-1.33;89.47;100876.16;4937851;29;1036;-77
2021/04/07 05:19:43;;;;;;;;;;;;;;;-1.39;89.72;100876.41;4940223;29;868;-77
2021/04/07 05:22:08;;;;;;;;;;;;;;;-1.38;90.66;100870.72;4952904;29;872;-77
2021/04/07 05:24:34;;;;;;;;;;;;;;;-1.26;90.22;100875.09;4937965;29;1182;-77
2021/04/07 05:27:00;;;;;;;;;;;;;;;-1.16;90.23;100880.56;4938075;29;798;-78
2021/04/07 05:29:26;;;;;;;;;;;;;;;-1.18;90.31;100878.16;4937451;29;901;-77
2021/04/07 05:31:51;;;;;;;;;;;;;;;-1.18;90.14;100878.16;4937810;29;858;-77
2021/04/07 05:34:16;;;;;;;;;;;;;;;-1.13;90.11;100885.47;4937476;29;1906;-77
2021/04/07 05:36:42;;;;;;;;;;;;;;;-1.07;89.99;100878.16;4937950;29;901;-77
2021/04/07 05:39:07;;;;;;;;;;;;;;;-0.97;89.96;100875.50;4937366;29;829;-77
2021/04/07 05:41:33;;;;;;;;;;;;;;;-0.97;89.70;100881.75;4936289;29;893;-77
2021/04/07 05:43:58;;;;;;;;;;;;;;;-0.95;90.08;100876.06;4937464;29;1178;-77
2021/04/07 05:46:24;;;;;;;;;;;;;;;-0.91;90.15;100889.91;4937626;29;980;-77
2021/04/07 05:48:49;;;;;;;;;;;;;;;-0.79;89.63;100883.16;4937174;29;866;-77
2021/04/07 05:51:15;;;;;;;;;;;;;;;-0.69;89.50;100876.13;4937845;29;1011;-77
2021/04/07 05:53:40;;;;;;;;;;;;;;;-0.64;89.35;100879.69;4937701;29;1871;-77
2021/04/07 05:56:06;;;;;;;;;;;;;;;-0.58;88.74;100884.03;4937415;29;965;-77
2021/04/07 05:58:31;;;;;;;;;;;;;;;-0.54;88.89;100880.78;4936975;29;834;-77
2021/04/07 06:00:56;;;;;;;;;;;;;;;-0.42;88.35;100881.34;4937840;29;1040;-77
2021/04/07 06:03:22;;;;;;;;;;;;;;;-0.31;88.27;100883.00;4938867;29;795;-77
2021/04/07 06:05:49;;;;;;;;;;;;;;;-0.10;88.08;100893.88;4942752;29;1372;-77
2021/04/07 06:08:19;;;;;;;;;;;;;;;-0.21;87.59;100899.28;4941353;29;826;-76
2021/04/07 06:10:46;;;;;;;;;;;;;;;-0.25;88.00;100895.47;4940855;29;845;-77
2021/04/07 06:13:14;;;;;;;;;;;;;;;-0.20;88.30;100895.47;4939281;29;1361;-77
2021/04/07 06:15:40;;;;;;;;;;;;;;;-0.14;87.93;100909.84;4940740;29;2001;-77
2021/04/07 06:18:10;;;;;;;;;;;;;;;-0.20;88.47;100897.38;4940492;29;869;-77
2021/04/07 06:20:38;;;;;;;;;;;;;;;-0.05;87.86;100900.13;4940618;29;853;-77
2021/04/07 06:23:06;;;;;;;;;;;;;;;0.07;87.24;100901.72;4940676;29;830;-77
2021/04/07 06:25:33;;;;;;;;;;;;;;;0.11;87.51;100905.56;4940538;29;1183;-77
2021/04/07 06:28:01;;;;;;;;;;;;;;;0.11;87.33;100911.78;4940361;29;862;-77
2021/04/07 06:30:41;;;;;;;;;;;;;;;0.10;86.98;100910.16;4940293;29;948;-77
2021/04/07 06:33:32;;;;;;;;;;;;;;;0.12;87.45;100915.31;4940395;29;850;-77
2021/04/07 06:36:03;;;;;;;;;;;;;;;0.03;87.31;100920.47;4940443;29;870;-77
2021/04/07 06:38:30;;;;;;;;;;;;;;;0.04;88.18;100927.53;4939775;29;941;-77
2021/04/07 06:40:56;;;;;;;;;;;;;;;0.08;88.45;100925.09;4940383;29;969;-77
2021/04/07 06:43:23;;;;;;;;;;;;;;;0.10;87.78;100921.00;4940427;29;936;-77
2021/04/07 06:45:49;;;;;;;;;;;;;;;0.14;88.27;100924.81;4940690;29;1180;-77
2021/04/07 06:48:15;;;;;;;;;;;;;;;0.15;88.65;100931.06;4939652;29;831;-77
2021/04/07 06:50:42;;;;;;;;;;;;;;;0.22;88.23;100933.50;4940255;29;897;-77
2021/04/07 06:53:09;;;;;;;;;;;;;;;0.18;88.79;100939.47;4940490;29;984;-77
2021/04/07 06:55:36;;;;;;;;;;;;;;;0.37;88.71;100934.31;4939757;29;1960;-77
2021/04/07 06:58:04;;;;;;;;;;;;;;;0.71;86.65;100924.75;4939248;29;953;-77
2021/04/07 07:00:30;;;;;;;;;;;;;;;0.70;86.21;100920.41;4939841;29;833;-77
2021/04/07 07:02:59;;;;;;;;;;;;;;;0.93;85.91;100925.25;4939847;29;896;-77
2021/04/07 07:05:25;;;;;;;;;;;;;;;1.17;84.81;100916.44;4939841;29;1198;-77
2021/04/07 07:07:52;;;;;;;;;;;;;;;1.10;84.48;100919.47;4939442;29;776;-77
2021/04/07 07:10:17;;;;;;;;;;;;;;;1.17;84.26;100929.25;4939779;29;845;-77
2021/04/07 07:12:45;;;;;;;;;;;;;;;1.25;84.76;100923.22;4939503;29;789;-77
2021/04/07 07:15:11;;;;;;;;;;;;;;;1.21;83.87;100922.13;4938860;29;1898;-77
2021/04/07 07:17:37;;;;;;;;;;;;;;;1.09;84.07;100926.00;4939145;29;841;-77
2021/04/07 07:20:03;;;;;;;;;;;;;;;1.19;84.36;100924.34;4939582;29;959;-77
2021/04/07 07:22:30;;;;;;;;;;;;;;;1.19;84.27;100918.88;4939409;29;1080;-78
2021/04/07 07:24:58;;;;;;;;;;;;;;;1.55;83.10;100916.81;4938960;29;1218;-77
2021/04/07 07:27:43;;;;;;;;;;;;;;;1.80;82.28;100928.63;4939026;29;833;-79
2021/04/07 07:30:12;;;;;;;;;;;;;;;2.10;80.76;100933.03;4939151;29;905;-77
2021/04/07 07:32:40;;;;;;;;;;;;;;;2.45;79.86;100936.56;4939189;29;952;-77
2021/04/07 07:35:17;;;;;;;;;;;;;;;2.33;79.52;100931.47;4939004;29;1907;-77
2021/04/07 07:37:47;;;;;;;;;;;;;;;2.21;80.43;100941.94;4939199;29;827;-77
2021/04/07 07:40:18;;;;;;;;;;;;;;;2.18;80.68;100945.22;4938538;29;1300;-77
2021/04/07 07:42:48;;;;;;;;;;;;;;;2.18;81.03;100947.97;4939121;29;751;-77
2021/04/07 07:45:14;;;;;;;;;;;;;;;2.18;80.07;100950.69;4938929;29;1174;-78
2021/04/07 07:47:44;;;;;;;;;;;;;;;2.10;81.08;100954.03;4939197;29;877;-77
2021/04/07 07:50:11;;;;;;;;;;;;;;;2.43;79.96;100953.19;4940466;29;880;-77
2021/04/07 07:52:38;;;;;;;;;;;;;;;2.77;78.90;100957.00;4939235;29;868;-77
2021/04/07 07:55:16;;;;;;;;;;;;;;;2.55;78.09;100955.56;4939347;29;1945;-77
2021/04/07 07:57:55;;;;;;;;;;;;;;;2.66;78.99;100956.25;4938792;29;806;-79
2021/04/07 08:00:22;;;;;;;;;;;;;;;2.64;78.21;100961.19;4938859;29;858;-77
2021/04/07 08:02:48;;;;;;;;;;;;;;;2.51;78.82;100967.31;4938731;29;890;-77
2021/04/07 08:05:23;;;;;;;;;;;;;;;2.58;78.27;100967.81;4938256;29;1198;-77
2021/04/07 08:07:51;;;;;;;;;;;;;;;2.63;78.22;100962.31;4938421;29;885;-77
2021/04/07 08:10:17;;;;;;;;;;;;;;;2.81;78.18;100960.75;4938846;29;826;-77
2021/04/07 08:12:42;;;;;;;;;;;;;;;3.82;75.82;100957.06;4938832;29;871;-77
2021/04/07 08:15:09;;;;;;;;;;;;;;;4.39;72.08;100978.06;4938286;29;1891;-77
2021/04/07 08:17:36;;;;;;;;;;;;;;;5.03;69.18;100972.81;4937754;29;890;-77
2021/04/07 08:20:04;;;;;;;;;;;;;;;5.75;66.10;100958.47;4938864;29;1044;-77
2021/04/07 08:22:33;;;;;;;;;;;;;;;6.21;64.86;100957.44;4938478;29;1203;-77
2021/04/07 08:24:58;;;;;;;;;;;;;;;5.30;66.94;100963.81;4938077;29;1273;-77
2021/04/07 08:27:25;;;;;;;;;;;;;;;6.05;66.45;100967.13;4937347;29;996;-77
2021/04/07 08:29:51;;;;;;;;;;;;;;;5.85;66.61;100968.41;4952747;29;1149;-77
2021/04/07 08:32:21;;;;;;;;;;;;;;;5.15;68.50;100970.38;4938057;29;977;-77
2021/04/07 08:34:48;;;;;;;;;;;;;;;4.51;70.38;100972.94;4938126;29;1966;-77
2021/04/07 08:37:27;;;;;;;;;;;;;;;4.41;71.28;100979.41;4937881;29;799;-78
2021/04/07 08:39:54;;;;;;;;;;;;;;;4.20;73.30;100980.81;4938325;29;972;-77
2021/04/07 08:42:20;;;;;;;;;;;;;;;4.35;72.07;100977.03;4938436;29;881;-77
2021/04/07 08:44:47;;;;;;;;;;;;;;;4.46;72.23;100973.00;4938038;29;1178;-77
2021/04/07 08:47:28;;;;;;;;;;;;;;;4.59;72.12;100968.72;4937612;29;852;-77
2021/04/07 08:50:02;;;;;;;;;;;;;;;4.34;71.88;100978.94;4938179;29;829;-77
2021/04/07 08:52:28;;;;;;;;;;;;;;;4.18;73.33;100983.84;4938191;29;879;-77
2021/04/07 08:54:59;;;;;;;;;;;;;;;4.25;73.77;100983.47;4937987;29;1903;-77
2021/04/07 08:57:36;;;;;;;;;;;;;;;4.03;73.14;100995.00;4938011;29;861;-77
2021/04/07 09:00:14;;;;;;;;;;;;;;;3.95;73.51;100999.22;4938243;29;865;-77
2021/04/07 09:03:07;;;;;;;;;;;;;;;4.08;73.34;101001.22;4937949;29;823;-77
2021/04/07 09:05:44;;;;;;;;;;;;;;;4.64;71.36;100999.50;4937705;29;1297;-76
2021/04/07 09:08:15;;;;;;;;;;;;;;;4.82;71.43;100986.06;4937189;29;771;-76
2021/04/07 09:10:43;;;;;;;;;;;;;;;5.80;67.90;100985.75;4937913;29;830;-77
2021/04/07 09:13:10;;;;;;;;;;;;;;;7.29;63.34;100975.78;4938021;29;818;-77
2021/04/07 09:16:02;;;;;;;;;;;;;;;8.91;58.44;100970.13;4937800;29;1903;-77
2021/04/07 09:18:37;;;;;;;;;;;;;;;11.88;49.01;100959.03;4937429;29;841;-77
2021/04/07 09:21:04;;;;;;;;;;;;;;;15.82;40.73;100959.75;4938087;29;807;-77
2021/04/07 09:23:33;;;;;;;;;;;;;;;16.43;36.43;100952.13;4937434;29;1261;-77
2021/04/07 09:26:08;;;;;;;;;;;;;;;17.06;36.35;100941.22;4937554;29;907;-77
2021/04/07 09:28:40;;;;;;;;;;;;;;;16.98;34.80;100936.78;4936801;29;802;-77
2021/04/07 09:31:22;;;;;;;;;;;;;;;14.11;39.73;100970.25;4937518;29;830;-77
2021/04/07 09:33:50;;;;;;;;;;;;;;;11.33;46.70;100966.81;4937213;29;1961;-77
2021/04/07 09:36:25;;;;;;;;;;;;;;;10.44;50.12;100978.44;4937622;29;889;-77
2021/04/07 09:38:52;;;;;;;;;;;;;;;9.70;51.68;100970.53;4940503;29;924;-77
2021/04/07 09:41:22;;;;;;;;;;;;;;;8.46;55.75;100973.28;4941149;29;972;-77
2021/04/07 09:43:48;;;;;;;;;;;;;;;7.90;58.75;100971.19;4940975;29;1195;-77
2021/04/07 09:46:13;;;;;;;;;;;;;;;7.25;60.68;100981.09;4941218;29;1138;-77
2021/04/07 09:48:56;;;;;;;;;;;;;;;6.49;62.89;100972.94;4940927;29;771;-77
2021/04/07 09:51:30;;;;;;;;;;;;;;;6.26;64.57;100988.59;4941305;29;1047;-77
2021/04/07 09:54:19;;;;;;;;;;;;;;;6.15;66.31;100977.06;4940748;29;1976;-78
2021/04/07 09:57:14;;;;;;;;;;;;;;;5.89;67.87;100987.78;4941746;29;822;-77
2021/04/07 09:59:43;;;;;;;;;;;;;;;5.38;70.14;100979.53;4941016;29;897;-76
2021/04/07 10:02:10;;;;;;;;;;;;;;;5.74;70.86;100986.97;4940934;29;845;-77
2021/04/07 10:04:40;;;;;;;;;;;;;;;5.81;69.78;100990.13;4940586;29;1218;-76
2021/04/07 10:07:33;;;;;;;;;;;;;;;5.78;70.79;100998.97;4940699;29;1184;-76
2021/04/07 10:10:00;;;;;;;;;;;;;;;5.63;72.05;100988.31;4938952;29;1162;-77
2021/04/07 10:12:27;;;;;;;;;;;;;;;5.38;73.18;100989.66;4940705;29;886;-77
2021/04/07 10:14:54;;;;;;;;;;;;;;;5.08;75.86;101009.09;4940621;29;1994;-77
2021/04/07 10:17:22;;;;;;;;;;;;;;;4.96;75.95;101002.53;4940237;29;923;-77
2021/04/07 10:19:48;;;;;;;;;;;;;;;4.86;76.19;101003.50;4940906;29;937;-77
2021/04/07 10:22:24;;;;;;;;;;;;;;;5.14;76.04;100996.16;4941184;29;877;-76
2021/04/07 10:24:53;;;;;;;;;;;;;;;6.58;73.18;100990.28;4940406;29;1206;-77
2021/04/07 10:27:20;;;;;;;;;;;;;;;7.11;69.07;100996.84;4940421;29;826;-77
2021/04/07 10:29:45;;;;;;;;;;;;;;;6.94;68.93;101000.34;4940687;29;892;-77
2021/04/07 10:32:16;;;;;;;;;;;;;;;6.63;71.32;101003.03;4941002;29;910;-77
2021/04/07 10:34:42;;;;;;;;;;;;;;;5.94;74.09;101010.38;4940231;29;1976;-77
2021/04/07 10:37:10;;;;;;;;;;;;;;;5.39;76.26;101015.94;4940362;29;849;-77
2021/04/07 10:39:38;;;;;;;;;;;;;;;4.88;75.93;101004.84;4940459;29;965;-77
2021/04/07 10:42:04;;;;;;;;;;;;;;;4.76;78.83;101020.94;4940312;29;782;-77
2021/04/07 10:44:32;;;;;;;;;;;;;;;4.73;79.01;101034.41;4939858;29;1320;-79
2021/04/07 10:47:00;;;;;;;;;;;;;;;4.78;77.77;101039.78;4940598;29;861;-77
2021/04/07 10:49:25;;;;;;;;;;;;;;;4.62;77.90;101050.97;4938852;29;847;-77
2021/04/07 10:52:28;;;;;;;;;;;;;;;5.65;77.01;101043.63;4939514;29;784;-77
2021/04/07 10:54:57;;;;;;;;;;;;;;;7.99;68.88;101036.38;4939048;28;1966;-77
2021/04/07 10:57:37;;;;;;;;;;;;;;;8.84;65.74;101041.41;4937736;29;1491;-77
2021/04/07 11:00:09;;;;;;;;;;;;;;;7.96;67.52;101059.03;4939963;29;864;-77
2021/04/07 11:02:42;;;;;;;;;;;;;;;7.38;68.42;101050.75;4939958;29;782;-77
2021/04/07 11:05:16;;;;;;;;;;;;;;;7.04;66.78;101044.00;4939626;29;1277;-77
2021/04/07 11:07:42;;;;;;;;;;;;;;;7.12;69.14;101058.88;4939252;29;802;-77
2021/04/07 11:10:09;;;;;;;;;;;;;;;7.69;68.16;101049.91;4940009;29;782;-77
2021/04/07 11:12:35;;;;;;;;;;;;;;;7.00;68.58;101061.41;4939694;29;782;-77
2021/04/07 11:15:08;;;;;;;;;;;;;;;6.49;69.35;101057.97;4939340;29;1887;-77
2021/04/07 11:17:34;;;;;;;;;;;;;;;6.22;71.47;101062.44;4937457;29;839;-76
2021/04/07 11:19:59;;;;;;;;;;;;;;;6.18;72.31;101061.44;4939468;29;909;-76
2021/04/07 11:22:25;;;;;;;;;;;;;;;6.07;72.78;101066.31;4939398;29;940;-75
2021/04/07 11:24:50;;;;;;;;;;;;;;;5.95;73.20;101074.22;4939024;29;1269;-76
2021/04/07 11:27:16;;;;;;;;;;;;;;;5.95;74.03;101049.56;4938846;29;864;-76
2021/04/07 11:29:41;;;;;;;;;;;;;;;7.01;70.20;101063.84;4939308;29;810;-76
2021/04/07 11:32:07;;;;;;;;;;;;;;;7.52;67.73;101059.69;4937996;29;818;-76
2021/04/07 11:35:00;;;;;;;;;;;;;;;7.59;67.12;101067.50;4939034;29;1882;-76
2021/04/07 11:37:36;;;;;;;;;;;;;;;7.46;66.47;101082.16;4938580;29;1068;-76
2021/04/07 11:40:08;;;;;;;;;;;;;;;6.33;68.63;101095.94;4939413;29;1077;-75
2021/04/07 11:45:35;;;;;;;;;;;;;;;4.75;73.59;101087.69;4936614;29;1322;-76
2021/04/07 11:48:00;;;;;;;;;;;;;;;4.69;73.76;101086.97;4937876;29;1043;-76
2021/04/07 11:50:26;;;;;;;;;;;;;;;5.05;73.73;101096.50;4938925;29;1401;-76
2021/04/07 11:52:51;;;;;;;;;;;;;;;5.26;72.22;101103.25;4939437;29;798;-76
2021/04/07 11:55:18;;;;;;;;;;;;;;;5.51;72.16;101086.66;4938792;29;1887;-76
2021/04/07 11:57:43;;;;;;;;;;;;;;;5.57;71.81;101099.94;4939065;29;996;-76
2021/04/07 12:00:11;;;;;;;;;;;;;;;6.20;70.92;101089.38;4938515;29;786;-76
2021/04/07 12:02:40;;;;;;;;;;;;;;;9.67;62.41;101073.25;4938394;29;770;-76
2021/04/07 12:05:06;;;;;;;;;;;;;;;12.61;53.62;101079.03;4938306;29;1178;-76
2021/04/07 12:07:32;;;;;;;;;;;;;;;15.47;47.66;101074.06;4938117;29;810;-76
2021/04/07 12:09:57;;;;;;;;;;;;;;;15.36;43.66;101068.34;4938350;29;786;-75
2021/04/07 12:12:22;;;;;;;;;;;;;;;13.13;46.72;101078.13;4938251;29;834;-76
2021/04/07 12:14:48;;;;;;;;;;;;;;;12.77;48.78;101071.59;4937970;29;1895;-76
2021/04/07 12:17:13;;;;;;;;;;;;;;;12.14;50.53;101069.34;4937668;29;940;-76
2021/04/07 12:19:38;;;;;;;;;;;;;;;11.15;52.05;101068.50;4938196;29;889;-76
2021/04/07 12:22:04;;;;;;;;;;;;;;;9.72;55.57;101078.53;4938532;29;898;-76
2021/04/07 12:24:29;;;;;;;;;;;;;;;8.47;60.23;101113.31;4938094;29;1179;-76
2021/04/07 12:26:56;;;;;;;;;;;;;;;7.09;63.57;101095.22;4937920;29;857;-76
2021/04/07 12:29:22;;;;;;;;;;;;;;;6.36;66.79;101098.06;4937662;29;1103;-77
2021/04/07 12:31:48;;;;;;;;;;;;;;;7.30;64.51;101100.97;4938185;29;879;-76
2021/04/07 12:34:13;;;;;;;;;;;;;;;8.60;59.56;101099.72;4937902;29;1890;-75
2021/04/07 12:36:39;;;;;;;;;;;;;;;8.29;60.21;101112.47;4938027;29;794;-76
2021/04/07 12:39:05;;;;;;;;;;;;;;;10.13;56.72;101096.31;4937914;29;939;-75
2021/04/07 12:41:35;;;;;;;;;;;;;;;12.48;50.35;101107.97;4938407;29;880;-75
2021/04/07 12:44:00;;;;;;;;;;;;;;;13.07;47.25;101107.25;4937983;29;1218;-80
2021/04/07 12:46:27;;;;;;;;;;;;;;;11.15;48.37;101123.78;4937783;29;776;-75
2021/04/07 12:48:52;;;;;;;;;;;;;;;8.79;57.41;101140.69;4937470;29;843;-76
2021/04/07 12:51:25;;;;;;;;;;;;;;;8.45;59.72;101136.81;4937797;29;778;-76
2021/04/07 12:53:51;;;;;;;;;;;;;;;8.34;61.46;101140.97;4938242;29;1883;-76
2021/04/07 12:56:18;;;;;;;;;;;;;;;8.01;59.15;101136.69;4937799;29;802;-76
2021/04/07 12:58:44;;;;;;;;;;;;;;;7.75;60.36;101141.28;4937471;29;849;-76
2021/04/07 13:01:10;;;;;;;;;;;;;;;8.43;59.71;101136.31;4937849;29;810;-76
2021/04/07 13:03:35;;;;;;;;;;;;;;;8.37;58.72;101138.38;4937760;29;1214;-76
2021/04/07 13:06:01;;;;;;;;;;;;;;;9.47;57.19;101124.38;4938143;29;913;-76